Time;durP1;ratioP1;P1;durP2;ratioP2;P2;SDS_P1;SDS_P2;PMS_P1;PMS_P2;Temp;Humidity;BMP_temperature;BMP_pressure;BME280_temperature;BME280_humidity;BME280_pressure;Samples;Min_cycle;Max_cycle;Signal;HPM_P1;HPM_P2
2023/07/24 00:01:42;;;;;;;1.90;1.70;;;23.80;52.40;;;;;;4968963;28;20542;-68
2023/07/24 00:04:27;;;;;;;1.57;1.40;;;23.80;52.10;;;;;;4980230;28;20467;-68
2023/07/24 00:07:09;;;;;;;1.63;1.47;;;23.80;52.30;;;;;;4982963;28;20490;-68
2023/07/24 00:09:47;;;;;;;1.53;1.43;;;23.80;52.10;;;;;;4981046;28;20462;-68
2023/07/24 00:12:30;;;;;;;1.40;1.30;;;23.80;53.80;;;;;;4977394;28;20480;-68
2023/07/24 00:15:24;;;;;;;1.93;1.50;;;23.80;52.30;;;;;;4993737;28;20506;-68
2023/07/24 00:18:25;;;;;;;1.80;1.50;;;23.80;52.20;;;;;;4965252;28;20527;-68
2023/07/24 00:21:19;;;;;;;1.97;1.50;;;23.80;52.00;;;;;;4992190;28;20977;-68
2023/07/24 00:24:25;;;;;;;1.80;1.60;;;23.80;51.80;;;;;;4970918;28;20481;-68
2023/07/24 00:27:29;;;;;;;1.37;1.20;;;23.80;51.90;;;;;;4970117;28;20727;-68
2023/07/24 00:30:12;;;;;;;1.57;1.30;;;23.80;51.90;;;;;;4982600;28;20462;-68
2023/07/24 00:33:01;;;;;;;1.73;1.50;;;23.80;51.90;;;;;;4986998;28;22469;-68
2023/07/24 00:35:42;;;;;;;1.50;1.40;;;23.80;52.10;;;;;;4950859;28;20457;-68
2023/07/24 00:38:38;;;;;;;1.43;1.23;;;23.80;52.00;;;;;;4981689;28;20470;-68
2023/07/24 00:41:20;;;;;;;1.43;1.10;;;23.70;51.80;;;;;;4966116;28;20570;-68
2023/07/24 00:44:11;;;;;;;1.73;1.53;;;23.80;52.00;;;;;;4968755;28;20555;-68
2023/07/24 00:47:01;;;;;;;1.33;1.13;;;23.70;51.80;;;;;;4951129;28;20838;-68
2023/07/24 00:49:51;;;;;;;2.10;1.50;;;23.80;51.80;;;;;;4982890;28;20602;-68
2023/07/24 00:52:53;;;;;;;1.97;1.30;;;23.80;51.70;;;;;;4963903;28;20479;-68
2023/07/24 00:55:45;;;;;;;1.47;1.37;;;23.80;51.70;;;;;;4975376;28;20467;-68
2023/07/24 00:59:01;;;;;;;1.00;0.90;;;23.80;51.70;;;;;;4957037;28;20459;-68
2023/07/24 01:02:12;;;;;;;1.57;1.47;;;23.80;51.60;;;;;;4990307;28;20485;-69
2023/07/24 01:08:58;;;;;;;1.77;1.43;;;23.80;51.50;;;;;;4955458;28;20463;-68
2023/07/24 01:12:02;;;;;;;1.70;1.43;;;23.70;51.50;;;;;;4973901;28;20494;-68
2023/07/24 01:15:20;;;;;;;1.47;1.10;;;23.80;51.40;;;;;;4976047;28;20470;-68
2023/07/24 01:18:51;;;;;;;1.80;1.60;;;23.70;51.40;;;;;;4956735;28;20472;-68
2023/07/24 01:22:07;;;;;;;1.40;1.30;;;23.70;51.40;;;;;;4988436;28;20470;-68
2023/07/24 01:25:06;;;;;;;2.47;1.40;;;23.70;51.40;;;;;;4988884;28;20984;-68
2023/07/24 01:27:44;;;;;;;1.20;1.10;;;23.70;51.60;;;;;;4981484;28;20785;-68
2023/07/24 01:30:25;;;;;;;2.10;1.67;;;23.70;51.40;;;;;;5006929;28;20437;-69
2023/07/24 01:33:13;;;;;;;1.60;1.43;;;23.70;51.80;;;;;;4953266;28;20480;-68
2023/07/24 01:35:53;;;;;;;1.43;1.33;;;23.70;51.60;;;;;;4964632;28;21276;-69
2023/07/24 01:38:44;;;;;;;2.50;1.70;;;23.70;51.80;;;;;;4961955;28;20467;-69
2023/07/24 01:41:32;;;;;;;2.27;2.03;;;23.70;51.90;;;;;;4980634;28;20752;-69
2023/07/24 01:44:21;;;;;;;2.83;2.17;;;23.70;52.10;;;;;;4960269;28;20468;-68
2023/07/24 01:47:16;;;;;;;1.70;1.40;;;23.60;51.70;;;;;;4976165;28;20567;-68
2023/07/24 01:50:08;;;;;;;2.10;1.80;;;23.60;51.80;;;;;;4977180;28;20460;-68
2023/07/24 01:52:46;;;;;;;1.90;1.63;;;23.60;51.90;;;;;;4971193;28;20555;-68
2023/07/24 01:55:27;;;;;;;1.70;1.47;;;23.60;52.40;;;;;;4991024;28;20484;-68
2023/07/24 01:58:09;;;;;;;2.80;2.20;;;23.60;51.90;;;;;;4977498;28;21021;-68
2023/07/24 02:00:53;;;;;;;2.40;2.10;;;23.60;52.10;;;;;;4988864;28;20932;-68
2023/07/24 02:03:41;;;;;;;1.80;1.50;;;23.60;52.00;;;;;;4973927;28;20477;-68
2023/07/24 02:06:25;;;;;;;1.70;1.50;;;23.60;52.10;;;;;;4966986;28;20468;-68
2023/07/24 02:09:02;;;;;;;2.90;1.80;;;23.60;52.30;;;;;;4977841;28;21935;-69
2023/07/24 02:11:39;;;;;;;1.63;1.53;;;23.60;52.40;;;;;;4959562;28;20475;-68
2023/07/24 02:14:20;;;;;;;1.70;1.50;;;23.60;52.10;;;;;;4979612;28;20484;-68
2023/07/24 02:16:54;;;;;;;2.67;2.17;;;23.60;52.70;;;;;;4983992;28;20533;-69
2023/07/24 02:19:39;;;;;;;2.97;2.00;;;23.60;52.70;;;;;;4990634;28;20440;-68
2023/07/24 02:22:13;;;;;;;2.13;1.70;;;23.60;52.70;;;;;;4986270;28;20560;-68
2023/07/24 02:24:59;;;;;;;1.50;1.40;;;23.60;52.10;;;;;;5011578;28;20572;-68
2023/07/24 02:27:38;;;;;;;2.47;1.70;;;23.60;52.10;;;;;;4988376;28;20780;-68
2023/07/24 02:30:15;;;;;;;2.23;1.80;;;23.60;52.10;;;;;;4975375;28;20451;-68
2023/07/24 02:32:49;;;;;;;1.60;1.50;;;23.60;52.70;;;;;;4985119;28;20468;-68
2023/07/24 02:35:28;;;;;;;3.53;1.97;;;23.60;53.80;;;;;;4992535;28;21074;-68
2023/07/24 02:38:05;;;;;;;1.63;1.53;;;23.60;52.20;;;;;;4978345;28;21030;-68
2023/07/24 02:40:43;;;;;;;2.80;1.97;;;23.60;52.10;;;;;;4990845;28;20852;-68
2023/07/24 02:43:23;;;;;;;2.50;2.10;;;23.60;52.00;;;;;;4983979;28;20880;-69
2023/07/24 02:46:18;;;;;;;1.80;1.50;;;23.60;52.40;;;;;;4991502;28;20454;-68
2023/07/24 02:49:07;;;;;;;1.90;1.70;;;23.60;52.30;;;;;;4989938;28;20857;-68
2023/07/24 02:51:45;;;;;;;2.00;1.60;;;23.60;52.40;;;;;;4952733;28;20493;-68
2023/07/24 02:54:44;;;;;;;2.27;2.07;;;23.60;52.70;;;;;;4976318;28;20462;-68
2023/07/24 02:57:35;;;;;;;2.30;1.30;;;23.60;52.30;;;;;;4982657;28;20566;-68
2023/07/24 03:00:13;;;;;;;1.73;1.43;;;23.60;52.60;;;;;;4963343;28;20473;-68
2023/07/24 03:02:52;;;;;;;1.80;1.70;;;23.60;52.40;;;;;;4958583;28;20471;-68
2023/07/24 03:05:38;;;;;;;2.40;2.07;;;23.60;52.70;;;;;;4980354;28;20751;-69
2023/07/24 03:08:12;;;;;;;1.97;1.77;;;23.60;52.50;;;;;;4981076;28;20495;-68
2023/07/24 03:10:58;;;;;;;2.20;1.67;;;23.60;52.20;;;;;;4967691;28;20471;-68
2023/07/24 03:13:40;;;;;;;2.53;1.57;;;23.60;52.30;;;;;;4966095;28;20474;-68
2023/07/24 03:16:26;;;;;;;1.83;1.73;;;23.60;52.10;;;;;;4978982;28;20543;-68
2023/07/24 03:19:19;;;;;;;2.50;2.27;;;23.60;52.70;;;;;;4983445;28;20453;-68
2023/07/24 03:22:07;;;;;;;1.50;1.40;;;23.50;52.10;;;;;;5000531;28;20855;-68
2023/07/24 03:24:55;;;;;;;2.13;1.93;;;23.50;52.00;;;;;;4969940;28;20736;-69
2023/07/24 03:27:38;;;;;;;2.63;1.90;;;23.50;52.10;;;;;;4972662;28;20987;-69
2023/07/24 03:30:20;;;;;;;2.90;2.07;;;23.50;52.20;;;;;;4982873;28;20716;-69
2023/07/24 03:38:46;;;;;;;1.70;1.60;;;23.50;52.60;;;;;;4979941;28;20445;-69
2023/07/24 03:41:26;;;;;;;1.93;1.60;;;23.50;52.40;;;;;;4985237;28;20435;-69
2023/07/24 03:44:12;;;;;;;2.20;1.93;;;23.50;52.60;;;;;;4980504;28;20531;-69
2023/07/24 03:47:06;;;;;;;1.60;1.50;;;23.50;52.10;;;;;;4979411;28;20450;-69
2023/07/24 03:49:57;;;;;;;2.17;1.97;;;23.50;52.00;;;;;;4981194;28;20439;-68
2023/07/24 03:52:37;;;;;;;1.80;1.53;;;23.50;52.10;;;;;;4981179;28;20494;-69
2023/07/24 03:55:18;;;;;;;3.47;1.70;;;23.50;53.40;;;;;;4998364;28;20936;-69
2023/07/24 03:58:03;;;;;;;1.50;1.40;;;23.50;52.60;;;;;;4975273;28;20762;-69
2023/07/24 04:00:53;;;;;;;1.63;1.47;;;23.50;51.90;;;;;;4964160;28;21025;-69
2023/07/24 04:03:40;;;;;;;2.80;1.80;;;23.50;52.10;;;;;;4990257;28;20493;-69
2023/07/24 04:06:32;;;;;;;3.73;1.40;;;23.50;51.90;;;;;;4993087;28;20481;-69
2023/07/24 04:09:23;;;;;;;2.50;1.97;;;23.50;51.90;;;;;;4978496;28;20732;-68
2023/07/24 04:12:17;;;;;;;3.43;2.17;;;23.50;52.00;;;;;;4981299;28;20482;-69
2023/07/24 04:14:51;;;;;;;2.10;1.77;;;23.50;52.10;;;;;;4988935;28;20476;-69
2023/07/24 04:20:34;;;;;;;2.43;1.57;;;23.50;52.20;;;;;;4985877;28;20760;-69
2023/07/24 04:23:16;;;;;;;2.63;2.20;;;23.50;51.80;;;;;;5014312;28;20461;-69
2023/07/24 04:29:04;;;;;;;3.20;1.90;;;23.50;52.60;;;;;;5003321;28;20448;-69
2023/07/24 04:32:01;;;;;;;1.83;1.50;;;23.50;51.90;;;;;;4966471;28;20488;-69
2023/07/24 04:34:44;;;;;;;2.30;1.90;;;23.50;52.00;;;;;;4965799;28;20480;-69
2023/07/24 04:37:31;;;;;;;1.83;1.60;;;23.40;52.20;;;;;;4952681;28;20535;-69
2023/07/24 04:40:18;;;;;;;2.13;1.73;;;23.40;51.90;;;;;;4966194;28;20450;-69
2023/07/24 04:43:00;;;;;;;1.70;1.60;;;23.40;52.00;;;;;;4960045;28;20877;-69
2023/07/24 04:46:05;;;;;;;2.40;2.10;;;23.40;52.10;;;;;;4972003;28;21088;-69
2023/07/24 04:48:44;;;;;;;2.47;2.03;;;23.40;52.20;;;;;;4964776;28;20449;-69
2023/07/24 04:51:30;;;;;;;2.03;1.73;;;23.40;52.10;;;;;;4990627;28;20453;-69
2023/07/24 04:54:12;;;;;;;5.60;1.90;;;23.40;51.80;;;;;;4961278;28;20483;-69
2023/07/24 04:57:04;;;;;;;2.57;2.17;;;23.40;51.80;;;;;;4956139;28;20480;-68
2023/07/24 04:59:54;;;;;;;2.53;2.33;;;23.40;52.10;;;;;;4965570;28;20486;-69
2023/07/24 05:02:37;;;;;;;3.87;2.70;;;23.40;52.50;;;;;;4966047;28;20821;-69
2023/07/24 05:05:26;;;;;;;2.80;2.30;;;23.40;52.50;;;;;;4984571;28;20528;-69
2023/07/24 05:08:15;;;;;;;2.23;2.00;;;23.30;52.00;;;;;;4953711;28;20924;-69
2023/07/24 05:11:00;;;;;;;3.20;2.10;;;23.30;51.80;;;;;;4973055;28;20552;-69
2023/07/24 05:16:31;;;;;;;2.13;1.77;;;23.30;52.40;;;;;;4982509;28;20461;-69
2023/07/24 05:19:37;;;;;;;2.10;1.80;;;23.40;51.90;;;;;;5000778;28;20448;-69
2023/07/24 05:22:34;;;;;;;2.63;2.37;;;23.30;52.00;;;;;;4982702;28;20480;-69
2023/07/24 05:25:23;;;;;;;2.03;1.70;;;23.30;52.10;;;;;;4974658;28;21009;-70
2023/07/24 12:27:50;;;;;;;1.90;1.70;;;23.00;53.80;;;;;;4997931;28;20448;-70
2023/07/24 12:30:19;;;;;;;2.70;2.07;;;23.00;54.50;;;;;;4998696;28;20465;-69
2023/07/24 12:32:48;;;;;;;1.80;1.47;;;23.00;54.10;;;;;;4987876;28;20495;-69
2023/07/24 12:35:17;;;;;;;2.20;2.00;;;23.00;54.20;;;;;;4986041;28;20467;-69
2023/07/24 12:37:46;;;;;;;2.30;1.57;;;23.00;54.10;;;;;;4985316;28;20479;-69
2023/07/24 12:40:15;;;;;;;2.73;1.80;;;23.00;54.20;;;;;;4988121;28;20510;-69
2023/07/24 12:42:43;;;;;;;2.33;1.73;;;23.00;53.80;;;;;;4980674;28;20477;-70
2023/07/24 12:45:13;;;;;;;1.97;1.63;;;23.00;54.00;;;;;;4980761;28;21078;-69
2023/07/24 12:47:41;;;;;;;2.23;1.70;;;23.00;54.10;;;;;;4998203;28;20477;-69
2023/07/24 12:50:11;;;;;;;2.90;1.97;;;23.00;54.30;;;;;;4999113;28;20963;-67
2023/07/24 12:52:40;;;;;;;2.10;1.60;;;23.10;54.20;;;;;;5001065;28;20576;-68
2023/07/24 12:55:10;;;;;;;1.97;1.77;;;23.10;53.90;;;;;;4986896;28;20476;-69
2023/07/24 12:57:39;;;;;;;1.80;1.50;;;23.10;54.30;;;;;;4984611;28;20480;-69
2023/07/24 13:00:08;;;;;;;2.20;1.90;;;23.00;54.00;;;;;;4980720;28;20443;-69
2023/07/24 13:02:39;;;;;;;4.00;1.50;;;23.10;54.10;;;;;;4978093;28;20471;-68
2023/07/24 13:05:08;;;;;;;2.03;1.83;;;23.10;54.30;;;;;;4998022;28;20560;-68
2023/07/24 13:07:37;;;;;;;2.00;1.73;;;23.10;54.10;;;;;;5000678;28;20474;-68
2023/07/24 13:10:07;;;;;;;2.33;1.53;;;23.10;54.00;;;;;;4988464;28;20451;-68
2023/07/24 13:12:36;;;;;;;2.80;1.70;;;23.10;54.00;;;;;;4987025;28;20472;-68
2023/07/24 13:15:06;;;;;;;2.07;1.47;;;23.10;54.30;;;;;;5003962;28;20583;-68
2023/07/24 13:17:36;;;;;;;1.77;1.57;;;23.10;54.00;;;;;;4985877;28;20475;-68
2023/07/24 13:20:09;;;;;;;1.97;1.60;;;23.10;53.80;;;;;;5002451;28;20538;-68
2023/07/24 13:22:38;;;;;;;1.73;1.50;;;23.10;53.70;;;;;;5002112;28;20760;-68
2023/07/24 13:25:07;;;;;;;1.67;1.50;;;23.10;53.70;;;;;;4990943;28;20551;-67
2023/07/24 13:27:36;;;;;;;2.47;1.70;;;23.10;54.00;;;;;;4995631;28;20851;-68
2023/07/24 13:30:05;;;;;;;2.20;1.40;;;23.10;53.90;;;;;;5003676;28;20453;-68
2023/07/24 13:32:34;;;;;;;1.63;1.40;;;23.10;53.90;;;;;;4990262;28;20483;-69
2023/07/24 13:35:03;;;;;;;3.00;1.77;;;23.10;54.10;;;;;;5009607;28;20573;-68
2023/07/24 13:37:33;;;;;;;1.50;1.30;;;23.10;54.10;;;;;;4995241;28;20487;-69
2023/07/24 13:40:02;;;;;;;1.40;1.30;;;23.10;54.50;;;;;;4971579;28;20984;-69
2023/07/24 13:42:32;;;;;;;2.60;1.37;;;23.10;54.30;;;;;;4989651;28;20477;-69
2023/07/24 13:45:01;;;;;;;1.87;1.67;;;23.10;54.60;;;;;;4986054;28;20516;-69
2023/07/24 13:47:30;;;;;;;1.83;1.30;;;23.10;54.80;;;;;;4970795;28;20473;-67
2023/07/24 13:49:59;;;;;;;1.90;1.57;;;23.10;55.00;;;;;;4972438;28;20483;-67
2023/07/24 13:52:28;;;;;;;1.93;1.40;;;23.10;55.00;;;;;;4971607;28;20830;-68
2023/07/24 13:55:00;;;;;;;2.13;1.57;;;23.10;55.10;;;;;;4971889;28;20558;-69
2023/07/24 13:57:29;;;;;;;1.90;1.60;;;23.00;55.00;;;;;;4996757;28;20507;-69
2023/07/24 13:59:58;;;;;;;2.10;1.90;;;23.10;54.90;;;;;;4986309;28;20828;-69
2023/07/24 14:02:26;;;;;;;2.40;1.83;;;23.00;55.10;;;;;;4966692;28;20551;-68
2023/07/24 14:04:55;;;;;;;1.87;1.67;;;23.10;55.60;;;;;;4985217;28;20475;-68
2023/07/24 14:07:24;;;;;;;2.87;1.70;;;23.00;55.50;;;;;;4970964;28;20469;-69
2023/07/24 14:09:54;;;;;;;1.90;1.23;;;23.00;55.80;;;;;;4981219;28;20854;-69
2023/07/24 14:12:24;;;;;;;2.20;1.80;;;23.00;55.40;;;;;;4989298;28;20561;-68
2023/07/24 14:14:53;;;;;;;1.97;1.37;;;23.00;55.90;;;;;;4963944;28;20501;-68
2023/07/24 14:17:23;;;;;;;1.77;1.53;;;23.00;55.50;;;;;;4962003;28;20476;-68
2023/07/24 14:19:52;;;;;;;2.10;1.70;;;23.00;55.90;;;;;;4967995;28;20820;-69
2023/07/24 14:22:22;;;;;;;1.57;1.40;;;23.00;56.40;;;;;;5000330;28;20779;-69
2023/07/24 14:24:52;;;;;;;2.50;1.60;;;23.00;56.10;;;;;;5007743;28;20555;-68
2023/07/24 14:27:23;;;;;;;1.93;1.20;;;23.00;56.20;;;;;;5007941;28;21007;-69
2023/07/24 14:29:53;;;;;;;1.67;1.40;;;23.00;55.80;;;;;;5022328;28;20456;-69
2023/07/24 14:32:21;;;;;;;1.77;1.60;;;23.00;56.00;;;;;;4989742;28;20513;-68
2023/07/24 14:34:53;;;;;;;2.70;1.87;;;23.00;56.10;;;;;;4988026;28;20558;-69
2023/07/24 14:37:22;;;;;;;1.70;1.43;;;23.00;56.20;;;;;;4987605;28;20572;-68
2023/07/24 14:39:51;;;;;;;1.83;1.63;;;23.00;56.40;;;;;;5007636;28;20987;-68
2023/07/24 14:42:22;;;;;;;2.53;2.00;;;23.00;56.60;;;;;;5004082;28;20468;-68
2023/07/24 14:44:51;;;;;;;2.33;1.90;;;23.00;56.20;;;;;;4993070;28;20504;-69
2023/07/24 14:47:19;;;;;;;1.60;1.47;;;23.00;56.70;;;;;;4986988;28;20492;-69
2023/07/24 14:49:48;;;;;;;2.43;1.50;;;23.00;56.50;;;;;;5002004;28;20984;-69
2023/07/24 14:52:18;;;;;;;1.90;1.53;;;23.10;56.00;;;;;;4992741;28;20485;-69
2023/07/24 14:54:46;;;;;;;2.17;1.60;;;23.10;56.10;;;;;;5007080;28;20466;-69
2023/07/24 14:57:15;;;;;;;2.07;1.87;;;23.10;56.10;;;;;;4990620;28;20474;-69
2023/07/24 14:59:54;;;;;;;1.87;1.43;;;23.10;55.80;;;;;;4968252;28;20479;-69
2023/07/24 15:02:23;;;;;;;1.60;1.20;;;23.10;55.90;;;;;;4966791;28;20481;-69
2023/07/24 15:04:51;;;;;;;4.10;1.70;;;23.10;55.80;;;;;;4978402;28;20474;-69
2023/07/24 15:07:20;;;;;;;2.00;1.10;;;23.10;55.70;;;;;;4993319;28;20660;-69
2023/07/24 15:09:49;;;;;;;2.30;2.10;;;23.10;56.00;;;;;;4996654;28;20457;-69
2023/07/24 15:12:17;;;;;;;1.80;1.60;;;23.10;55.80;;;;;;4982966;28;20556;-69
2023/07/24 15:14:46;;;;;;;1.60;1.50;;;23.10;55.60;;;;;;5001844;28;20471;-69
2023/07/24 15:17:18;;;;;;;2.63;1.50;;;23.10;55.50;;;;;;4997728;28;20478;-69
2023/07/24 15:19:47;;;;;;;2.20;1.47;;;23.10;55.30;;;;;;4982815;28;20872;-69
2023/07/24 15:22:15;;;;;;;2.17;1.97;;;23.10;55.30;;;;;;5000998;28;20476;-69
2023/07/24 15:24:43;;;;;;;2.50;1.70;;;23.10;55.40;;;;;;4985038;28;20498;-69
2023/07/24 15:27:12;;;;;;;2.67;1.37;;;23.10;55.20;;;;;;4996366;28;20477;-69
2023/07/24 15:29:40;;;;;;;1.93;1.00;;;23.10;55.40;;;;;;4986663;28;20449;-69
2023/07/24 15:32:09;;;;;;;3.87;1.80;;;23.10;55.20;;;;;;4983065;28;20484;-70
2023/07/24 15:34:39;;;;;;;1.63;1.30;;;23.10;55.40;;;;;;4982273;28;20484;-69
2023/07/24 15:37:09;;;;;;;2.73;1.80;;;23.10;55.30;;;;;;4980547;28;20475;-70
2023/07/24 15:39:41;;;;;;;2.90;1.77;;;23.10;55.30;;;;;;4982356;28;20459;-69
2023/07/24 15:42:09;;;;;;;1.73;1.60;;;23.10;55.30;;;;;;4980548;28;20557;-68
2023/07/24 15:44:38;;;;;;;1.67;1.43;;;23.10;55.00;;;;;;5006531;28;20500;-68
2023/07/24 15:47:07;;;;;;;2.00;1.80;;;23.10;54.70;;;;;;4988275;28;20538;-68
2023/07/24 15:49:35;;;;;;;2.47;1.90;;;23.10;54.80;;;;;;4985991;28;20909;-68
2023/07/24 15:52:07;;;;;;;1.60;1.40;;;23.10;54.70;;;;;;4997584;28;20471;-67
2023/07/24 15:54:36;;;;;;;2.03;1.50;;;23.10;55.80;;;;;;4985581;28;21002;-68
2023/07/24 15:57:05;;;;;;;1.97;1.57;;;23.10;54.40;;;;;;5001863;28;20965;-69
2023/07/24 15:59:33;;;;;;;2.53;1.37;;;23.10;54.30;;;;;;5001750;28;20546;-69
2023/07/24 16:02:02;;;;;;;1.50;1.40;;;23.10;54.20;;;;;;4987924;28;20600;-69
2023/07/24 16:04:31;;;;;;;2.20;1.63;;;23.10;54.30;;;;;;4986392;28;20535;-69
2023/07/24 16:06:59;;;;;;;1.90;1.70;;;23.10;54.40;;;;;;4985882;28;20475;-69
2023/07/24 16:09:29;;;;;;;2.00;1.80;;;23.10;54.80;;;;;;4987778;28;20555;-68
2023/07/24 16:12:00;;;;;;;2.03;1.80;;;23.10;54.50;;;;;;4987928;28;20467;-69
2023/07/24 16:14:29;;;;;;;2.93;1.50;;;23.10;54.60;;;;;;4988045;28;20875;-68
2023/07/24 16:16:57;;;;;;;2.20;1.40;;;23.10;54.50;;;;;;4977946;28;20483;-69
2023/07/24 16:19:26;;;;;;;1.93;1.37;;;23.10;55.70;;;;;;4984200;28;20453;-69
2023/07/24 16:21:55;;;;;;;2.50;1.90;;;23.10;54.50;;;;;;4997074;28;20428;-69
2023/07/24 16:24:24;;;;;;;2.50;1.67;;;23.10;54.50;;;;;;5008391;28;20514;-68
2023/07/24 16:26:54;;;;;;;2.03;1.50;;;23.10;54.30;;;;;;4977890;28;20429;-69
2023/07/24 16:29:23;;;;;;;3.03;1.30;;;23.10;54.30;;;;;;4990961;28;20579;-68
2023/07/24 16:31:51;;;;;;;2.40;1.53;;;23.10;54.20;;;;;;5002277;28;20959;-69
2023/07/24 16:34:20;;;;;;;1.90;1.53;;;23.10;54.10;;;;;;5003348;28;20467;-68
2023/07/24 16:36:49;;;;;;;1.97;1.80;;;23.10;54.30;;;;;;5005477;28;20521;-69
2023/07/24 16:39:18;;;;;;;2.00;1.50;;;23.10;54.10;;;;;;5004098;28;20455;-69
2023/07/24 16:41:47;;;;;;;1.77;1.50;;;23.10;54.10;;;;;;4971142;28;20971;-67
2023/07/24 16:44:18;;;;;;;1.80;1.30;;;23.10;54.10;;;;;;4991001;28;20478;-68
2023/07/24 16:46:46;;;;;;;2.37;2.00;;;23.10;54.00;;;;;;4986460;28;20437;-69
2023/07/24 16:49:15;;;;;;;1.97;1.77;;;23.10;54.10;;;;;;5006972;28;20450;-69
2023/07/24 16:51:47;;;;;;;2.77;1.80;;;23.10;54.00;;;;;;4986684;28;20475;-67
2023/07/24 16:54:15;;;;;;;2.40;1.90;;;23.10;54.10;;;;;;5004429;28;20472;-69
2023/07/24 16:56:44;;;;;;;2.63;2.23;;;23.10;53.90;;;;;;4983700;28;21779;-69
2023/07/24 16:59:13;;;;;;;1.60;1.40;;;23.10;54.00;;;;;;4987053;28;20447;-69
2023/07/24 17:01:43;;;;;;;2.30;2.10;;;23.10;54.00;;;;;;4984348;28;20937;-68
2023/07/24 17:04:12;;;;;;;2.37;2.00;;;23.10;54.10;;;;;;4983219;28;20806;-68
2023/07/24 17:06:43;;;;;;;2.70;2.03;;;23.10;53.80;;;;;;4999469;28;20925;-69
2023/07/24 17:09:12;;;;;;;2.50;1.80;;;23.10;53.70;;;;;;5000917;28;20529;-69
2023/07/24 17:11:41;;;;;;;2.00;1.60;;;23.20;53.80;;;;;;4980062;28;20437;-69
2023/07/24 17:14:09;;;;;;;1.73;1.40;;;23.10;53.60;;;;;;4986106;28;20457;-69
2023/07/24 17:16:38;;;;;;;2.07;1.83;;;23.10;53.50;;;;;;4988153;28;20468;-69
2023/07/24 17:19:09;;;;;;;2.13;1.63;;;23.20;53.70;;;;;;4983909;28;20821;-68
2023/07/24 17:21:37;;;;;;;2.63;1.83;;;23.20;53.50;;;;;;4990131;28;20438;-69
2023/07/24 17:24:06;;;;;;;1.87;1.60;;;23.10;53.40;;;;;;5001194;28;20983;-68
2023/07/24 17:26:35;;;;;;;3.20;1.80;;;23.20;53.50;;;;;;4998806;28;20469;-69
2023/07/24 17:29:04;;;;;;;2.10;1.80;;;23.10;53.50;;;;;;4988724;28;20463;-68
2023/07/24 17:31:33;;;;;;;1.60;1.33;;;23.10;53.50;;;;;;5004729;28;21112;-68
2023/07/24 17:34:02;;;;;;;2.47;1.70;;;23.10;53.50;;;;;;4991963;28;20530;-68
2023/07/24 17:36:32;;;;;;;2.23;1.70;;;23.10;53.40;;;;;;4991043;28;20457;-69
2023/07/24 17:39:02;;;;;;;2.00;1.70;;;23.10;53.50;;;;;;4988658;28;20447;-68
2023/07/24 17:41:31;;;;;;;1.93;1.60;;;23.10;53.60;;;;;;4992379;28;20474;-68
2023/07/24 17:44:00;;;;;;;1.93;1.60;;;23.10;53.70;;;;;;5006470;28;20479;-69
2023/07/24 17:46:28;;;;;;;1.57;1.47;;;23.10;53.60;;;;;;4987363;28;20507;-69
2023/07/24 17:48:57;;;;;;;1.47;1.30;;;23.10;53.60;;;;;;4991493;28;20496;-69
2023/07/24 17:51:26;;;;;;;1.63;1.37;;;23.20;53.80;;;;;;4984235;28;20544;-69
2023/07/24 17:53:56;;;;;;;2.77;2.40;;;23.10;53.70;;;;;;4990380;28;20471;-68
2023/07/24 17:56:25;;;;;;;1.97;1.63;;;23.10;53.80;;;;;;4996758;28;20526;-69
2023/07/24 17:58:54;;;;;;;2.13;1.93;;;23.10;53.70;;;;;;4977994;28;20449;-69
2023/07/24 18:01:22;;;;;;;1.70;1.53;;;23.10;53.70;;;;;;5004794;28;20463;-68
2023/07/24 18:03:51;;;;;;;1.83;1.53;;;23.10;53.70;;;;;;5004933;28;20606;-68
2023/07/24 18:06:20;;;;;;;1.90;1.60;;;23.10;53.60;;;;;;4998805;28;20473;-69
2023/07/24 18:08:48;;;;;;;2.50;1.43;;;23.10;53.60;;;;;;4983507;28;21093;-69
2023/07/24 18:11:18;;;;;;;2.10;1.80;;;23.10;53.60;;;;;;4980059;28;20456;-69
2023/07/24 18:13:47;;;;;;;1.87;1.60;;;23.10;53.50;;;;;;4980393;28;20462;-68
2023/07/24 18:16:15;;;;;;;1.80;1.63;;;23.10;53.60;;;;;;5004793;28;21173;-69
2023/07/24 18:18:44;;;;;;;2.30;1.30;;;23.10;53.60;;;;;;4994012;28;20476;-69
2023/07/24 18:21:12;;;;;;;1.90;1.60;;;23.10;53.50;;;;;;4990643;28;20529;-68
2023/07/24 18:23:41;;;;;;;1.70;1.30;;;23.20;53.60;;;;;;4987493;28;20479;-69
2023/07/24 18:26:10;;;;;;;1.50;1.40;;;23.20;53.60;;;;;;4985997;28;20455;-68
2023/07/24 18:28:40;;;;;;;2.00;1.63;;;23.10;53.50;;;;;;4987297;28;20520;-69
2023/07/24 18:31:09;;;;;;;1.43;1.03;;;23.20;53.50;;;;;;5003863;28;20441;-68
2023/07/24 18:33:37;;;;;;;1.70;1.40;;;23.20;53.50;;;;;;5004074;28;20506;-68
2023/07/24 18:36:06;;;;;;;1.80;1.53;;;23.10;53.30;;;;;;4983206;28;20537;-69
2023/07/24 18:38:35;;;;;;;2.00;1.70;;;23.10;53.30;;;;;;5001828;28;20881;-68
2023/07/24 18:41:05;;;;;;;1.80;1.37;;;23.20;53.40;;;;;;5001421;28;20447;-68
2023/07/24 18:43:33;;;;;;;1.80;1.60;;;23.10;53.30;;;;;;4983089;28;20845;-68
2023/07/24 18:46:03;;;;;;;1.70;1.30;;;23.10;53.30;;;;;;4986496;28;20454;-69
2023/07/24 18:48:33;;;;;;;2.10;1.83;;;23.10;53.30;;;;;;4989421;28;20452;-68
2023/07/24 18:51:02;;;;;;;2.20;1.50;;;23.10;53.30;;;;;;4988080;28;20527;-69
2023/07/24 18:53:31;;;;;;;1.60;1.50;;;23.10;53.30;;;;;;4999285;28;20449;-69
2023/07/24 18:55:59;;;;;;;1.80;1.53;;;23.10;53.20;;;;;;4983401;28;20448;-69
2023/07/24 18:58:28;;;;;;;1.53;1.43;;;23.10;53.20;;;;;;4987232;28;20472;-69
2023/07/24 19:00:57;;;;;;;1.50;1.37;;;23.10;53.30;;;;;;5005023;28;20698;-69
2023/07/24 19:03:26;;;;;;;2.37;2.17;;;23.10;53.20;;;;;;5005778;28;20460;-69
2023/07/24 19:05:56;;;;;;;1.63;1.50;;;23.10;53.20;;;;;;4998961;28;20440;-69
2023/07/24 19:08:25;;;;;;;2.10;1.90;;;23.10;53.20;;;;;;4997070;28;20453;-69
2023/07/24 19:10:53;;;;;;;1.97;1.50;;;23.10;53.20;;;;;;4985412;28;20476;-69
2023/07/24 19:13:22;;;;;;;1.80;1.60;;;23.10;53.20;;;;;;4986520;28;20552;-69
2023/07/24 19:15:51;;;;;;;1.87;1.40;;;23.10;53.20;;;;;;4998832;28;20448;-68
2023/07/24 19:18:19;;;;;;;3.00;1.70;;;23.10;53.10;;;;;;4982837;28;20477;-68
2023/07/24 19:20:49;;;;;;;1.80;1.50;;;23.10;53.20;;;;;;4989089;28;20938;-68
2023/07/24 19:23:19;;;;;;;2.00;1.50;;;23.10;53.10;;;;;;5001728;28;20500;-68
2023/07/24 19:25:47;;;;;;;1.90;1.40;;;23.10;53.00;;;;;;4984118;28;20444;-68
2023/07/24 19:28:16;;;;;;;1.77;1.43;;;23.10;53.00;;;;;;4998819;28;20491;-68
2023/07/24 19:30:44;;;;;;;2.23;1.70;;;23.10;53.00;;;;;;4988900;28;20447;-68
2023/07/24 19:33:15;;;;;;;1.77;1.37;;;23.10;53.00;;;;;;4985103;28;20477;-68
2023/07/24 19:35:43;;;;;;;1.37;1.20;;;23.10;52.90;;;;;;5001296;28;20525;-68
2023/07/24 19:38:14;;;;;;;1.67;1.57;;;23.10;52.90;;;;;;5001083;28;20570;-68
2023/07/24 19:40:42;;;;;;;2.00;1.30;;;23.10;53.00;;;;;;5004000;28;20448;-68
2023/07/24 19:43:11;;;;;;;1.60;1.30;;;23.10;52.90;;;;;;4998978;28;20477;-69
2023/07/24 19:45:39;;;;;;;2.03;1.70;;;23.10;53.00;;;;;;4984385;28;20437;-69
2023/07/24 19:48:08;;;;;;;2.20;1.23;;;23.10;53.00;;;;;;4998544;28;21024;-67
2023/07/24 19:50:37;;;;;;;1.70;1.30;;;23.10;53.00;;;;;;4986736;28;20475;-68
2023/07/24 19:53:05;;;;;;;3.80;1.70;;;23.10;53.00;;;;;;4983208;28;20595;-69
2023/07/24 19:55:37;;;;;;;1.97;1.43;;;23.10;52.90;;;;;;5000334;28;20448;-69
2023/07/24 19:58:06;;;;;;;1.87;1.63;;;23.10;53.00;;;;;;5002237;28;20501;-68
2023/07/24 20:00:51;;;;;;;1.70;1.60;;;23.10;53.00;;;;;;4986165;28;20434;-69
2023/07/24 20:03:20;;;;;;;1.47;1.37;;;23.10;52.90;;;;;;5003410;28;21019;-68
2023/07/24 20:05:54;;;;;;;1.53;1.40;;;23.10;53.00;;;;;;4983897;28;20457;-68
2023/07/24 20:08:23;;;;;;;1.93;1.50;;;23.10;52.90;;;;;;5007302;28;20474;-69
2023/07/24 20:10:57;;;;;;;1.83;1.37;;;23.10;52.90;;;;;;5002914;28;20510;-69
2023/07/24 20:13:26;;;;;;;1.97;1.40;;;23.10;52.90;;;;;;4986429;28;20462;-69
2023/07/24 20:15:55;;;;;;;2.00;1.40;;;23.10;52.80;;;;;;4994541;28;21142;-69
2023/07/24 20:18:26;;;;;;;2.27;1.90;;;23.10;52.90;;;;;;5006306;28;20508;-69
2023/07/24 20:20:55;;;;;;;2.10;1.40;;;23.10;52.90;;;;;;4990518;28;20880;-68
2023/07/24 20:23:25;;;;;;;2.47;1.73;;;23.10;54.10;;;;;;4986086;28;20498;-69
2023/07/24 20:25:55;;;;;;;2.40;1.50;;;23.10;52.90;;;;;;4986206;28;21114;-69
2023/07/24 20:28:24;;;;;;;1.53;1.43;;;23.10;52.80;;;;;;5007886;28;20448;-69
2023/07/24 20:30:53;;;;;;;1.40;1.20;;;23.10;52.90;;;;;;4996804;28;20455;-69
2023/07/24 20:33:22;;;;;;;1.97;1.77;;;23.10;52.80;;;;;;4989816;28;20560;-69
2023/07/24 20:35:51;;;;;;;1.60;1.20;;;23.10;52.80;;;;;;4989515;28;20462;-68
2023/07/24 20:38:24;;;;;;;1.97;1.57;;;23.10;52.80;;;;;;5008436;28;20487;-68
2023/07/24 20:40:54;;;;;;;1.57;1.40;;;23.10;52.70;;;;;;4987236;28;20850;-67
2023/07/24 20:43:23;;;;;;;1.93;1.60;;;23.10;52.80;;;;;;4975865;28;20922;-69
2023/07/24 20:45:51;;;;;;;2.17;1.90;;;23.10;52.90;;;;;;4990657;28;20788;-69
2023/07/24 20:48:20;;;;;;;2.70;1.33;;;23.10;52.80;;;;;;4988456;28;20492;-69
2023/07/24 20:51:09;;;;;;;1.33;1.23;;;23.10;52.70;;;;;;4987819;28;20485;-69